Time,TemperatureF,DewpointF,PressureIn,WindDirection,WindDirectionDegrees,WindSpeedMPH,WindSpeedGustMPH,Humidity,HourlyPrecipIn,Conditions,Clouds,dailyrainin,SoftwareType,DateUTC
2013-04-16 00:09:00,62.6,56.3,29.66,SE,135,10.9,-999.0,80,-99.99,,,0.00,Acu-Link.com,2013-04-16 04:09:00,
2013-04-16 00:24:00,62.4,56.1,29.66,SSE,157,6.8,-999.0,80,-99.99,,,0.00,Acu-Link.com,2013-04-16 04:24:00,
2013-04-16 00:39:00,62.2,56.3,29.67,SSE,157,8.9,-999.0,81,-99.99,,,0.00,Acu-Link.com,2013-04-16 04:39:00,
2013-04-16 00:54:00,62.1,56.2,29.66,SSW,202,10.4,-999.0,81,-99.99,,,0.00,Acu-Link.com,2013-04-16 04:54:00,
2013-04-16 01:09:00,61.9,56.3,29.65,South,180,9.4,-999.0,82,-99.99,,,0.00,Acu-Link.com,2013-04-16 05:09:00,
2013-04-16 01:24:00,61.9,56.3,29.65,SE,135,8.3,-999.0,82,-99.99,,,0.00,Acu-Link.com,2013-04-16 05:24:00,
2013-04-16 01:39:00,62.4,56.5,29.64,South,180,9.4,-999.0,81,-99.99,,,0.00,Acu-Link.com,2013-04-16 05:39:00,
2013-04-16 01:54:00,62.8,56.9,29.63,SSW,202,8.9,-999.0,81,-99.99,,,0.00,Acu-Link.com,2013-04-16 05:54:00,
2013-04-16 02:09:00,63.0,56.7,29.64,South,180,6.3,-999.0,80,-99.99,,,0.00,Acu-Link.com,2013-04-16 06:09:00,
2013-04-16 02:25:00,63.0,57.1,29.64,SSW,202,6.3,-999.0,81,-99.99,,,0.00,Acu-Link.com,2013-04-16 06:25:00,
2013-04-16 02:40:00,62.6,57.0,29.64,SSW,202,6.8,-999.0,82,-99.99,,,0.00,Acu-Link.com,2013-04-16 06:40:00,
2013-04-16 02:55:00,62.4,56.5,29.64,South,180,10.9,-999.0,81,-99.99,,,0.00,Acu-Link.com,2013-04-16 06:55:00,
2013-04-16 03:10:00,61.9,56.7,29.64,SSE,157,8.9,-999.0,83,-99.99,,,0.00,Acu-Link.com,2013-04-16 07:10:00,
2013-04-16 03:25:00,61.5,56.3,29.64,SW,225,4.7,-999.0,83,-99.99,,,0.00,Acu-Link.com,2013-04-16 07:25:00,
2013-04-16 03:41:00,61.0,56.1,29.64,West,270,2.7,-999.0,84,-99.99,,,0.00,Acu-Link.com,2013-04-16 07:41:00,
2013-04-16 04:11:00,60.6,56.1,29.65,NNW,337,5.3,-999.0,85,-99.99,,,0.00,Acu-Link.com,2013-04-16 08:11:00,
2013-04-16 04:26:00,59.9,56.0,29.66,NNW,337,5.8,-999.0,87,-99.99,,,0.00,Acu-Link.com,2013-04-16 08:26:00,
2013-04-16 04:41:00,57.2,54.9,29.67,NNW,337,4.7,-999.0,92,-99.99,,,0.00,Acu-Link.com,2013-04-16 08:41:00,
2013-04-16 04:57:00,55.4,53.4,29.68,North,0,4.7,-999.0,93,-99.99,,,0.00,Acu-Link.com,2013-04-16 08:57:00,
2013-04-16 05:12:00,52.3,50.6,29.72,NNW,337,17.6,-999.0,94,-99.99,,,0.00,Acu-Link.com,2013-04-16 09:12:00,
2013-04-16 05:27:00,50.2,48.5,29.72,NNW,337,7.3,-999.0,94,-99.99,,,0.00,Acu-Link.com,2013-04-16 09:27:00,
2013-04-16 05:42:00,50.0,48.3,29.72,North,0,8.3,-999.0,94,-99.99,,,0.00,Acu-Link.com,2013-04-16 09:42:00,
2013-04-16 05:57:00,50.0,48.3,29.74,North,0,7.8,-999.0,94,-99.99,,,0.00,Acu-Link.com,2013-04-16 09:57:00,
2013-04-16 06:13:00,50.0,48.3,29.75,NNE,22,4.2,-999.0,94,-99.99,,,0.00,Acu-Link.com,2013-04-16 10:13:00,
2013-04-16 06:28:00,49.8,48.1,29.75,North,0,5.8,-999.0,94,-99.99,,,0.00,Acu-Link.com,2013-04-16 10:28:00,
2013-04-16 06:43:00,49.8,48.1,29.75,WNW,292,4.2,-999.0,94,-99.99,,,0.00,Acu-Link.com,2013-04-16 10:43:00,
2013-04-16 06:58:00,49.8,48.1,29.77,NW,315,4.2,-999.0,94,-99.99,,,0.00,Acu-Link.com,2013-04-16 10:58:00,
2013-04-16 07:14:00,49.8,48.1,29.77,NE,45,2.7,-999.0,94,-99.99,,,0.00,Acu-Link.com,2013-04-16 11:14:00,
2013-04-16 07:29:00,49.8,48.1,29.78,NE,45,2.2,-999.0,94,-99.99,,,0.00,Acu-Link.com,2013-04-16 11:29:00,
2013-04-16 07:44:00,50.0,48.3,29.80,NNW,337,2.2,-999.0,94,-99.99,,,0.00,Acu-Link.com,2013-04-16 11:44:00,
2013-04-16 08:00:00,50.0,48.3,29.79,NNW,337,2.2,-999.0,94,-99.99,,,0.00,Acu-Link.com,2013-04-16 12:00:00,
2013-04-16 08:15:00,49.8,48.7,29.82,WNW,292,4.2,-999.0,96,-99.99,,,0.02,Acu-Link.com,2013-04-16 12:15:00,
2013-04-16 08:30:00,49.6,48.8,29.85,West,270,2.7,-999.0,97,-99.99,,,0.05,Acu-Link.com,2013-04-16 12:30:00,
2013-04-16 08:45:00,49.3,48.8,29.86,WNW,292,4.2,-999.0,98,-99.99,,,0.06,Acu-Link.com,2013-04-16 12:45:00,
2013-04-16 09:00:00,49.1,48.6,29.82,NNW,337,6.3,-999.0,98,-99.99,,,0.12,Acu-Link.com,2013-04-16 13:00:00,
2013-04-16 09:15:00,49.3,49.0,29.83,South,180,2.7,-999.0,99,-99.99,,,0.12,Acu-Link.com,2013-04-16 13:15:00,
2013-04-16 09:31:00,49.6,49.1,29.82,ESE,112,3.7,-999.0,98,-99.99,,,0.12,Acu-Link.com,2013-04-16 13:31:00,
2013-04-16 09:46:00,50.4,49.9,29.82,ESE,112,1.7,-999.0,98,-99.99,,,0.12,Acu-Link.com,2013-04-16 13:46:00,
2013-04-16 10:17:00,49.8,49.0,29.80,NNE,22,9.9,-999.0,97,-99.99,,,0.12,Acu-Link.com,2013-04-16 14:17:00,
2013-04-16 10:32:00,49.8,49.3,29.80,NNE,22,8.3,-999.0,98,-99.99,,,0.12,Acu-Link.com,2013-04-16 14:32:00,
2013-04-16 10:47:00,49.8,48.7,29.84,NNW,337,7.8,-999.0,96,-99.99,,,0.12,Acu-Link.com,2013-04-16 14:47:00,
2013-04-16 11:02:00,49.8,48.7,29.86,NNW,337,8.9,-999.0,96,-99.99,,,0.12,Acu-Link.com,2013-04-16 15:02:00,
2013-04-16 11:18:00,50.0,48.9,29.87,NNW,337,6.3,-999.0,96,-99.99,,,0.12,Acu-Link.com,2013-04-16 15:18:00,
2013-04-16 11:33:00,50.2,49.1,29.87,NNW,337,8.3,-999.0,96,-99.99,,,0.12,Acu-Link.com,2013-04-16 15:33:00,
2013-04-16 11:48:00,50.7,49.0,29.87,North,0,5.8,-999.0,94,-99.99,,,0.12,Acu-Link.com,2013-04-16 15:48:00,
2013-04-16 12:03:00,51.1,49.1,29.87,NW,315,9.9,-999.0,93,-99.99,,,0.12,Acu-Link.com,2013-04-16 16:03:00,
2013-04-16 12:18:00,51.3,49.1,29.88,NE,45,7.3,-999.0,92,-99.99,,,0.12,Acu-Link.com,2013-04-16 16:18:00,
2013-04-16 12:33:00,52.0,49.7,29.88,North,0,7.8,-999.0,92,-99.99,,,0.12,Acu-Link.com,2013-04-16 16:33:00,
2013-04-16 12:48:00,52.3,49.8,29.88,NNE,22,5.3,-999.0,91,-99.99,,,0.12,Acu-Link.com,2013-04-16 16:48:00,
2013-04-16 13:04:00,53.2,50.3,29.87,NE,45,4.7,-999.0,90,-99.99,,,0.12,Acu-Link.com,2013-04-16 17:04:00,
2013-04-16 13:19:00,53.8,50.6,29.86,East,90,4.2,-999.0,89,-99.99,,,0.12,Acu-Link.com,2013-04-16 17:19:00,
2013-04-16 13:34:00,53.8,50.6,29.87,East,90,3.7,-999.0,89,-99.99,,,0.12,Acu-Link.com,2013-04-16 17:34:00,
2013-04-16 13:49:00,53.6,51.0,29.89,NNW,337,9.4,-999.0,91,-99.99,,,0.12,Acu-Link.com,2013-04-16 17:49:00,
2013-04-16 14:04:00,52.0,50.9,29.90,NNW,337,13.5,-999.0,96,-99.99,,,0.20,Acu-Link.com,2013-04-16 18:04:00,
2013-04-16 14:19:00,51.8,51.0,29.88,NNE,22,8.9,-999.0,97,-99.99,,,0.26,Acu-Link.com,2013-04-16 18:19:00,
2013-04-16 14:34:00,51.1,50.3,29.85,North,0,10.4,-999.0,97,-99.99,,,0.43,Acu-Link.com,2013-04-16 18:34:00,
2013-04-16 14:49:00,50.9,50.4,29.85,NE,45,10.4,-999.0,98,-99.99,,,0.48,Acu-Link.com,2013-04-16 18:49:00,
2013-04-16 15:05:00,50.7,50.4,29.85,NNE,22,8.3,-999.0,99,-99.99,,,0.66,Acu-Link.com,2013-04-16 19:05:00,
2013-04-16 15:20:00,50.7,50.4,29.84,NNE,22,6.3,-999.0,99,-99.99,,,0.92,Acu-Link.com,2013-04-16 19:20:00,
2013-04-16 15:35:00,50.7,50.4,29.87,NNW,337,4.2,-999.0,99,-99.99,,,1.12,Acu-Link.com,2013-04-16 19:35:00,
2013-04-16 15:51:00,50.7,50.4,29.87,NNE,22,4.2,-999.0,99,-99.99,,,1.15,Acu-Link.com,2013-04-16 19:51:00,
2013-04-16 16:21:00,50.9,50.6,29.91,NNW,337,3.2,-999.0,99,-99.99,,,1.20,Acu-Link.com,2013-04-16 20:21:00,
2013-04-16 16:52:00,49.6,49.3,29.88,East,90,4.7,-999.0,99,-99.99,,,1.32,Acu-Link.com,2013-04-16 20:52:00,
2013-04-16 17:07:00,49.1,48.8,29.87,NW,315,6.8,-999.0,99,-99.99,,,1.36,Acu-Link.com,2013-04-16 21:07:00,
2013-04-16 17:22:00,48.9,48.6,29.87,NNE,22,6.8,-999.0,99,-99.99,,,1.41,Acu-Link.com,2013-04-16 21:22:00,
2013-04-16 17:37:00,49.1,48.8,29.87,NNE,22,8.9,-999.0,99,-99.99,,,1.42,Acu-Link.com,2013-04-16 21:37:00,
2013-04-16 17:52:00,48.9,48.6,29.88,NE,45,8.9,-999.0,99,-99.99,,,1.42,Acu-Link.com,2013-04-16 21:52:00,
2013-04-16 18:07:00,48.9,48.6,29.89,NNE,22,7.3,-999.0,99,-99.99,,,1.42,Acu-Link.com,2013-04-16 22:07:00,
2013-04-16 18:22:00,48.9,48.6,29.90,NNE,22,7.3,-999.0,99,-99.99,,,1.42,Acu-Link.com,2013-04-16 22:22:00,
2013-04-16 18:37:00,48.9,48.6,29.90,ENE,67,4.2,-999.0,99,-99.99,,,1.42,Acu-Link.com,2013-04-16 22:37:00,
2013-04-16 18:52:00,49.5,49.0,29.90,NNE,22,4.7,-999.0,98,-99.99,,,1.42,Acu-Link.com,2013-04-16 22:52:00,
2013-04-16 19:07:00,49.3,48.8,29.91,NE,45,3.7,-999.0,98,-99.99,,,1.42,Acu-Link.com,2013-04-16 23:07:00,
2013-04-16 19:22:00,49.1,48.6,29.90,ENE,67,7.3,-999.0,98,-99.99,,,1.42,Acu-Link.com,2013-04-16 23:22:00,
2013-04-16 19:38:00,49.3,48.5,29.91,NNE,22,7.3,-999.0,97,-99.99,,,1.43,Acu-Link.com,2013-04-16 23:38:00,
2013-04-16 19:53:00,49.1,47.7,29.88,NNE,22,6.3,-999.0,95,-99.99,,,1.43,Acu-Link.com,2013-04-16 23:53:00,
2013-04-16 20:08:00,49.1,47.7,29.88,NNE,22,7.8,-999.0,95,-99.99,,,1.43,Acu-Link.com,2013-04-17 00:08:00,
2013-04-16 20:23:00,48.9,47.5,29.89,NNE,22,10.4,-999.0,95,-99.99,,,1.43,Acu-Link.com,2013-04-17 00:23:00,
2013-04-16 20:38:00,48.7,47.3,29.89,NNE,22,7.3,-999.0,95,-99.99,,,1.43,Acu-Link.com,2013-04-17 00:38:00,
2013-04-16 20:54:00,48.6,47.2,29.90,NE,45,4.2,-999.0,95,-99.99,,,1.43,Acu-Link.com,2013-04-17 00:54:00,
2013-04-16 21:09:00,48.6,47.5,29.92,NNE,22,3.7,-999.0,96,-99.99,,,1.43,Acu-Link.com,2013-04-17 01:09:00,
2013-04-16 21:24:00,48.7,47.6,29.92,ENE,67,6.3,-999.0,96,-99.99,,,1.43,Acu-Link.com,2013-04-17 01:24:00,
2013-04-16 21:39:00,49.1,48.0,29.93,ENE,67,3.7,-999.0,96,-99.99,,,1.43,Acu-Link.com,2013-04-17 01:39:00,
2013-04-16 21:54:00,49.3,48.2,29.94,ESE,112,2.7,-999.0,96,-99.99,,,1.43,Acu-Link.com,2013-04-17 01:54:00,
2013-04-16 22:10:00,49.3,48.2,29.94,ENE,67,4.7,-999.0,96,-99.99,,,1.43,Acu-Link.com,2013-04-17 02:10:00,
2013-04-16 22:25:00,49.5,48.1,29.94,NE,45,4.2,-999.0,95,-99.99,,,1.43,Acu-Link.com,2013-04-17 02:25:00,
2013-04-16 22:40:00,49.5,48.4,29.94,NNE,22,5.3,-999.0,96,-99.99,,,1.43,Acu-Link.com,2013-04-17 02:40:00,
2013-04-16 22:56:00,49.6,48.2,29.94,ENE,67,4.7,-999.0,95,-99.99,,,1.43,Acu-Link.com,2013-04-17 02:56:00,
2013-04-16 23:11:00,49.6,48.5,29.94,NE,45,3.2,-999.0,96,-99.99,,,1.43,Acu-Link.com,2013-04-17 03:11:00,
2013-04-16 23:26:00,49.8,48.7,29.92,ENE,67,5.3,-999.0,96,-99.99,,,1.43,Acu-Link.com,2013-04-17 03:26:00,
2013-04-16 23:41:00,49.8,48.7,29.93,East,90,6.3,-999.0,96,-99.99,,,1.43,Acu-Link.com,2013-04-17 03:41:00,
2013-04-16 23:56:00,49.8,48.7,29.92,NE,45,4.2,-999.0,96,-99.99,,,1.43,Acu-Link.com,2013-04-17 03:56:00,